sensor_id;sensor_type;location;lat;lon;timestamp;P1;durP1;ratioP1;P2;durP2;ratioP2
920;SDS011;447;51.332;6.778;2023-07-20T00:02:01;3.60;;;3.30;;
920;SDS011;447;51.332;6.778;2023-07-20T00:04:31;4.27;;;3.00;;
920;SDS011;447;51.332;6.778;2023-07-20T00:06:57;3.50;;;3.20;;
920;SDS011;447;51.332;6.778;2023-07-20T00:09:26;3.37;;;3.17;;
920;SDS011;447;51.332;6.778;2023-07-20T00:11:54;4.53;;;3.27;;
920;SDS011;447;51.332;6.778;2023-07-20T00:14:20;3.47;;;3.20;;
920;SDS011;447;51.332;6.778;2023-07-20T00:16:55;3.80;;;3.50;;
920;SDS011;447;51.332;6.778;2023-07-20T00:19:22;3.53;;;3.33;;
920;SDS011;447;51.332;6.778;2023-07-20T00:21:49;3.10;;;2.90;;
920;SDS011;447;51.332;6.778;2023-07-20T00:24:18;3.53;;;3.23;;
920;SDS011;447;51.332;6.778;2023-07-20T00:26:46;3.07;;;2.87;;
920;SDS011;447;51.332;6.778;2023-07-20T00:29:13;3.60;;;3.30;;
920;SDS011;447;51.332;6.778;2023-07-20T00:31:39;3.43;;;3.13;;
920;SDS011;447;51.332;6.778;2023-07-20T00:34:08;3.40;;;3.10;;
920;SDS011;447;51.332;6.778;2023-07-20T00:36:34;3.80;;;3.30;;
920;SDS011;447;51.332;6.778;2023-07-20T00:39:02;3.70;;;3.17;;
920;SDS011;447;51.332;6.778;2023-07-20T00:41:28;3.30;;;3.00;;
920;SDS011;447;51.332;6.778;2023-07-20T00:43:55;3.73;;;3.43;;
920;SDS011;447;51.332;6.778;2023-07-20T00:46:24;3.70;;;3.40;;
920;SDS011;447;51.332;6.778;2023-07-20T00:48:53;3.63;;;3.33;;
920;SDS011;447;51.332;6.778;2023-07-20T00:51:22;3.20;;;3.00;;
920;SDS011;447;51.332;6.778;2023-07-20T00:53:50;5.90;;;3.57;;
920;SDS011;447;51.332;6.778;2023-07-20T00:56:16;3.50;;;3.30;;
920;SDS011;447;51.332;6.778;2023-07-20T00:58:43;3.37;;;3.17;;
920;SDS011;447;51.332;6.778;2023-07-20T01:01:12;3.40;;;3.10;;
920;SDS011;447;51.332;6.778;2023-07-20T01:03:40;3.83;;;3.50;;
920;SDS011;447;51.332;6.778;2023-07-20T01:06:15;3.80;;;3.50;;
920;SDS011;447;51.332;6.778;2023-07-20T01:14:24;3.97;;;3.57;;
920;SDS011;447;51.332;6.778;2023-07-20T01:16:51;3.47;;;3.27;;
920;SDS011;447;51.332;6.778;2023-07-20T01:19:20;3.60;;;3.37;;
920;SDS011;447;51.332;6.778;2023-07-20T01:21:50;3.67;;;3.37;;
920;SDS011;447;51.332;6.778;2023-07-20T01:27:50;3.80;;;3.47;;
920;SDS011;447;51.332;6.778;2023-07-20T01:33:21;4.03;;;3.43;;
920;SDS011;447;51.332;6.778;2023-07-20T01:35:54;4.07;;;3.77;;
920;SDS011;447;51.332;6.778;2023-07-20T01:38:25;4.00;;;3.60;;
920;SDS011;447;51.332;6.778;2023-07-20T01:40:52;4.33;;;3.77;;
920;SDS011;447;51.332;6.778;2023-07-20T01:43:18;4.37;;;3.97;;
920;SDS011;447;51.332;6.778;2023-07-20T01:45:47;3.87;;;3.30;;
920;SDS011;447;51.332;6.778;2023-07-20T01:48:13;3.57;;;3.37;;
920;SDS011;447;51.332;6.778;2023-07-20T01:50:41;3.50;;;3.20;;
920;SDS011;447;51.332;6.778;2023-07-20T01:53:09;4.03;;;3.73;;
920;SDS011;447;51.332;6.778;2023-07-20T01:55:35;3.47;;;3.17;;
920;SDS011;447;51.332;6.778;2023-07-20T01:58:04;3.37;;;3.17;;
920;SDS011;447;51.332;6.778;2023-07-20T02:00:31;3.80;;;3.50;;
920;SDS011;447;51.332;6.778;2023-07-20T02:02:57;5.17;;;3.13;;
920;SDS011;447;51.332;6.778;2023-07-20T02:05:27;4.43;;;4.03;;
920;SDS011;447;51.332;6.778;2023-07-20T02:07:55;4.07;;;3.67;;
920;SDS011;447;51.332;6.778;2023-07-20T02:10:26;4.13;;;3.83;;
920;SDS011;447;51.332;6.778;2023-07-20T02:12:52;3.90;;;3.50;;
920;SDS011;447;51.332;6.778;2023-07-20T02:15:21;4.17;;;3.80;;
920;SDS011;447;51.332;6.778;2023-07-20T02:17:47;6.37;;;3.40;;
920;SDS011;447;51.332;6.778;2023-07-20T02:20:16;3.77;;;3.57;;
920;SDS011;447;51.332;6.778;2023-07-20T02:22:43;4.80;;;3.87;;
920;SDS011;447;51.332;6.778;2023-07-20T02:25:11;4.10;;;3.60;;
920;SDS011;447;51.332;6.778;2023-07-20T02:27:42;4.40;;;3.93;;
920;SDS011;447;51.332;6.778;2023-07-20T02:30:08;6.03;;;3.57;;
920;SDS011;447;51.332;6.778;2023-07-20T02:32:36;3.87;;;3.53;;
920;SDS011;447;51.332;6.778;2023-07-20T02:35:02;3.90;;;3.60;;
920;SDS011;447;51.332;6.778;2023-07-20T02:37:29;3.77;;;3.57;;
920;SDS011;447;51.332;6.778;2023-07-20T02:39:55;3.67;;;3.37;;
920;SDS011;447;51.332;6.778;2023-07-20T02:42:20;4.17;;;3.80;;
920;SDS011;447;51.332;6.778;2023-07-20T02:44:52;5.27;;;4.20;;
920;SDS011;447;51.332;6.778;2023-07-20T02:47:18;4.17;;;3.83;;
920;SDS011;447;51.332;6.778;2023-07-20T02:49:44;3.87;;;3.57;;
920;SDS011;447;51.332;6.778;2023-07-20T02:52:10;4.23;;;3.80;;
920;SDS011;447;51.332;6.778;2023-07-20T02:54:38;4.00;;;3.47;;
920;SDS011;447;51.332;6.778;2023-07-20T02:57:06;3.97;;;3.67;;
920;SDS011;447;51.332;6.778;2023-07-20T02:59:35;3.87;;;3.57;;
920;SDS011;447;51.332;6.778;2023-07-20T03:02:03;4.20;;;3.90;;
920;SDS011;447;51.332;6.778;2023-07-20T03:04:35;3.77;;;3.47;;
920;SDS011;447;51.332;6.778;2023-07-20T03:07:07;3.77;;;3.50;;
920;SDS011;447;51.332;6.778;2023-07-20T03:09:33;4.13;;;3.73;;
920;SDS011;447;51.332;6.778;2023-07-20T03:12:02;3.90;;;3.60;;
920;SDS011;447;51.332;6.778;2023-07-20T03:14:31;3.60;;;3.40;;
920;SDS011;447;51.332;6.778;2023-07-20T03:16:57;4.33;;;3.93;;
920;SDS011;447;51.332;6.778;2023-07-20T03:19:23;4.17;;;3.87;;
920;SDS011;447;51.332;6.778;2023-07-20T03:21:49;3.90;;;3.67;;
920;SDS011;447;51.332;6.778;2023-07-20T03:24:20;3.67;;;3.47;;
920;SDS011;447;51.332;6.778;2023-07-20T03:26:49;3.70;;;3.40;;
920;SDS011;447;51.332;6.778;2023-07-20T03:29:15;3.60;;;3.30;;
920;SDS011;447;51.332;6.778;2023-07-20T03:31:45;5.10;;;3.70;;
920;SDS011;447;51.332;6.778;2023-07-20T03:34:14;4.60;;;4.30;;
920;SDS011;447;51.332;6.778;2023-07-20T03:36:40;3.93;;;3.63;;
920;SDS011;447;51.332;6.778;2023-07-20T03:39:10;3.80;;;3.60;;
920;SDS011;447;51.332;6.778;2023-07-20T03:41:40;4.37;;;4.00;;
920;SDS011;447;51.332;6.778;2023-07-20T03:44:09;4.40;;;4.00;;
920;SDS011;447;51.332;6.778;2023-07-20T03:46:37;4.50;;;4.10;;
920;SDS011;447;51.332;6.778;2023-07-20T03:49:03;4.27;;;3.87;;
920;SDS011;447;51.332;6.778;2023-07-20T03:51:33;3.67;;;3.40;;
920;SDS011;447;51.332;6.778;2023-07-20T03:54:00;3.93;;;3.63;;
920;SDS011;447;51.332;6.778;2023-07-20T03:56:26;4.10;;;3.80;;
920;SDS011;447;51.332;6.778;2023-07-20T03:58:52;4.20;;;3.90;;
920;SDS011;447;51.332;6.778;2023-07-20T04:01:18;4.40;;;4.10;;
920;SDS011;447;51.332;6.778;2023-07-20T04:03:47;4.43;;;4.13;;
920;SDS011;447;51.332;6.778;2023-07-20T04:06:13;4.00;;;3.70;;
920;SDS011;447;51.332;6.778;2023-07-20T04:08:39;4.40;;;4.00;;
920;SDS011;447;51.332;6.778;2023-07-20T04:11:05;5.20;;;4.70;;
920;SDS011;447;51.332;6.778;2023-07-20T04:13:36;6.53;;;4.37;;
920;SDS011;447;51.332;6.778;2023-07-20T04:16:02;3.90;;;3.70;;
920;SDS011;447;51.332;6.778;2023-07-20T04:18:28;4.50;;;3.67;;
920;SDS011;447;51.332;6.778;2023-07-20T04:20:54;3.90;;;3.70;;
920;SDS011;447;51.332;6.778;2023-07-20T04:23:22;4.17;;;3.87;;
920;SDS011;447;51.332;6.778;2023-07-20T04:25:49;4.47;;;4.07;;
920;SDS011;447;51.332;6.778;2023-07-20T04:28:18;4.10;;;3.73;;
920;SDS011;447;51.332;6.778;2023-07-20T04:30:49;4.17;;;3.87;;
920;SDS011;447;51.332;6.778;2023-07-20T04:33:19;4.10;;;3.80;;
920;SDS011;447;51.332;6.778;2023-07-20T04:38:25;4.53;;;4.13;;
920;SDS011;447;51.332;6.778;2023-07-20T04:41:23;4.30;;;3.90;;
920;SDS011;447;51.332;6.778;2023-07-20T04:43:55;4.27;;;3.87;;
920;SDS011;447;51.332;6.778;2023-07-20T04:46:27;4.20;;;3.87;;
920;SDS011;447;51.332;6.778;2023-07-20T04:48:56;3.97;;;3.70;;
920;SDS011;447;51.332;6.778;2023-07-20T04:51:23;5.07;;;4.67;;
920;SDS011;447;51.332;6.778;2023-07-20T04:53:52;4.20;;;3.63;;
920;SDS011;447;51.332;6.778;2023-07-20T04:56:18;5.07;;;4.67;;
920;SDS011;447;51.332;6.778;2023-07-20T04:58:45;4.03;;;3.63;;
920;SDS011;447;51.332;6.778;2023-07-20T05:01:15;5.80;;;4.23;;
920;SDS011;447;51.332;6.778;2023-07-20T05:03:43;4.27;;;3.90;;
920;SDS011;447;51.332;6.778;2023-07-20T05:06:09;4.20;;;3.90;;
920;SDS011;447;51.332;6.778;2023-07-20T05:08:39;4.57;;;4.13;;
920;SDS011;447;51.332;6.778;2023-07-20T05:11:05;4.70;;;4.07;;
920;SDS011;447;51.332;6.778;2023-07-20T05:13:31;4.33;;;4.00;;
920;SDS011;447;51.332;6.778;2023-07-20T05:15:57;4.90;;;4.40;;
920;SDS011;447;51.332;6.778;2023-07-20T05:18:23;5.03;;;4.63;;
920;SDS011;447;51.332;6.778;2023-07-20T05:20:51;5.00;;;4.50;;
920;SDS011;447;51.332;6.778;2023-07-20T05:23:19;4.90;;;4.50;;
920;SDS011;447;51.332;6.778;2023-07-20T05:25:55;5.27;;;4.87;;
920;SDS011;447;51.332;6.778;2023-07-20T05:28:24;4.70;;;4.40;;
920;SDS011;447;51.332;6.778;2023-07-20T05:30:52;4.87;;;4.57;;
920;SDS011;447;51.332;6.778;2023-07-20T05:33:22;4.73;;;4.33;;
920;SDS011;447;51.332;6.778;2023-07-20T05:35:48;5.30;;;4.80;;
920;SDS011;447;51.332;6.778;2023-07-20T05:38:17;4.80;;;4.40;;
920;SDS011;447;51.332;6.778;2023-07-20T05:40:44;5.20;;;4.80;;
920;SDS011;447;51.332;6.778;2023-07-20T05:43:10;5.80;;;4.57;;
920;SDS011;447;51.332;6.778;2023-07-20T05:45:42;4.67;;;4.33;;
920;SDS011;447;51.332;6.778;2023-07-20T05:48:12;6.60;;;4.57;;
920;SDS011;447;51.332;6.778;2023-07-20T05:50:44;4.70;;;4.30;;
920;SDS011;447;51.332;6.778;2023-07-20T05:53:09;5.47;;;4.67;;
920;SDS011;447;51.332;6.778;2023-07-20T05:55:36;5.10;;;4.70;;
920;SDS011;447;51.332;6.778;2023-07-20T05:58:05;5.30;;;4.90;;
920;SDS011;447;51.332;6.778;2023-07-20T06:00:33;5.30;;;4.90;;
920;SDS011;447;51.332;6.778;2023-07-20T06:02:59;4.77;;;4.37;;
920;SDS011;447;51.332;6.778;2023-07-20T06:05:25;4.53;;;4.23;;
920;SDS011;447;51.332;6.778;2023-07-20T06:07:51;6.17;;;4.80;;
920;SDS011;447;51.332;6.778;2023-07-20T06:10:20;5.00;;;4.60;;
920;SDS011;447;51.332;6.778;2023-07-20T06:12:49;5.20;;;4.80;;
920;SDS011;447;51.332;6.778;2023-07-20T06:15:27;5.37;;;4.87;;
920;SDS011;447;51.332;6.778;2023-07-20T06:17:59;7.10;;;5.23;;
920;SDS011;447;51.332;6.778;2023-07-20T06:20:26;5.13;;;4.70;;
920;SDS011;447;51.332;6.778;2023-07-20T06:22:55;4.87;;;4.43;;
920;SDS011;447;51.332;6.778;2023-07-20T06:25:23;4.67;;;4.37;;
920;SDS011;447;51.332;6.778;2023-07-20T06:27:54;6.30;;;5.80;;
920;SDS011;447;51.332;6.778;2023-07-20T06:30:21;4.43;;;4.13;;
920;SDS011;447;51.332;6.778;2023-07-20T06:32:47;6.00;;;5.50;;
920;SDS011;447;51.332;6.778;2023-07-20T06:35:13;6.00;;;5.40;;
920;SDS011;447;51.332;6.778;2023-07-20T06:37:40;5.30;;;4.90;;
920;SDS011;447;51.332;6.778;2023-07-20T06:40:07;5.53;;;5.13;;
920;SDS011;447;51.332;6.778;2023-07-20T06:42:41;5.83;;;5.33;;
920;SDS011;447;51.332;6.778;2023-07-20T06:45:07;6.07;;;5.67;;
920;SDS011;447;51.332;6.778;2023-07-20T06:47:39;6.03;;;5.43;;
920;SDS011;447;51.332;6.778;2023-07-20T06:50:06;4.73;;;4.33;;
920;SDS011;447;51.332;6.778;2023-07-20T06:52:33;5.90;;;5.40;;
920;SDS011;447;51.332;6.778;2023-07-20T06:55:02;5.90;;;5.40;;
920;SDS011;447;51.332;6.778;2023-07-20T06:57:29;5.87;;;5.37;;
920;SDS011;447;51.332;6.778;2023-07-20T06:59:55;5.90;;;5.40;;
920;SDS011;447;51.332;6.778;2023-07-20T07:02:24;7.10;;;5.43;;
920;SDS011;447;51.332;6.778;2023-07-20T07:04:50;5.70;;;5.30;;
920;SDS011;447;51.332;6.778;2023-07-20T07:07:16;6.00;;;5.50;;
920;SDS011;447;51.332;6.778;2023-07-20T07:09:44;5.90;;;5.50;;
920;SDS011;447;51.332;6.778;2023-07-20T07:12:12;6.90;;;5.70;;
920;SDS011;447;51.332;6.778;2023-07-20T07:14:38;5.60;;;5.10;;
920;SDS011;447;51.332;6.778;2023-07-20T07:17:05;6.60;;;6.10;;
920;SDS011;447;51.332;6.778;2023-07-20T07:19:32;5.80;;;5.40;;
920;SDS011;447;51.332;6.778;2023-07-20T07:22:00;6.30;;;5.80;;
920;SDS011;447;51.332;6.778;2023-07-20T07:24:29;6.67;;;6.17;;
920;SDS011;447;51.332;6.778;2023-07-20T07:27:01;6.43;;;5.93;;
920;SDS011;447;51.332;6.778;2023-07-20T07:29:27;8.20;;;6.50;;
920;SDS011;447;51.332;6.778;2023-07-20T07:31:59;6.10;;;5.50;;
920;SDS011;447;51.332;6.778;2023-07-20T07:34:28;5.60;;;5.20;;
920;SDS011;447;51.332;6.778;2023-07-20T07:36:54;6.97;;;5.53;;
920;SDS011;447;51.332;6.778;2023-07-20T07:39:22;5.83;;;5.33;;
920;SDS011;447;51.332;6.778;2023-07-20T07:41:49;6.03;;;5.53;;
920;SDS011;447;51.332;6.778;2023-07-20T07:44:21;5.30;;;4.90;;
920;SDS011;447;51.332;6.778;2023-07-20T07:46:49;6.00;;;5.50;;
920;SDS011;447;51.332;6.778;2023-07-20T07:49:18;5.70;;;5.30;;
920;SDS011;447;51.332;6.778;2023-07-20T07:51:47;5.90;;;5.50;;
920;SDS011;447;51.332;6.778;2023-07-20T07:54:15;5.90;;;5.50;;
920;SDS011;447;51.332;6.778;2023-07-20T07:56:44;5.50;;;5.10;;
920;SDS011;447;51.332;6.778;2023-07-20T07:59:10;5.13;;;4.73;;
920;SDS011;447;51.332;6.778;2023-07-20T08:01:36;6.63;;;6.00;;
920;SDS011;447;51.332;6.778;2023-07-20T08:04:05;5.67;;;5.17;;
920;SDS011;447;51.332;6.778;2023-07-20T08:06:31;4.87;;;4.57;;
920;SDS011;447;51.332;6.778;2023-07-20T08:08:59;5.20;;;4.90;;
920;SDS011;447;51.332;6.778;2023-07-20T08:11:28;5.30;;;5.00;;
920;SDS011;447;51.332;6.778;2023-07-20T08:13:59;5.10;;;4.73;;
920;SDS011;447;51.332;6.778;2023-07-20T08:16:26;4.83;;;4.43;;
920;SDS011;447;51.332;6.778;2023-07-20T08:18:55;5.30;;;4.90;;
920;SDS011;447;51.332;6.778;2023-07-20T08:21:21;5.23;;;4.80;;
920;SDS011;447;51.332;6.778;2023-07-20T08:23:47;5.53;;;5.13;;
920;SDS011;447;51.332;6.778;2023-07-20T08:26:13;5.07;;;4.67;;
920;SDS011;447;51.332;6.778;2023-07-20T08:28:39;5.63;;;5.30;;
920;SDS011;447;51.332;6.778;2023-07-20T08:31:10;5.20;;;4.70;;
920;SDS011;447;51.332;6.778;2023-07-20T08:33:36;4.70;;;4.40;;
920;SDS011;447;51.332;6.778;2023-07-20T08:36:06;4.93;;;4.53;;
920;SDS011;447;51.332;6.778;2023-07-20T08:38:35;4.80;;;4.50;;
920;SDS011;447;51.332;6.778;2023-07-20T08:41:03;5.10;;;4.70;;
920;SDS011;447;51.332;6.778;2023-07-20T08:43:29;4.80;;;4.50;;
920;SDS011;447;51.332;6.778;2023-07-20T08:45:59;5.00;;;4.60;;
920;SDS011;447;51.332;6.778;2023-07-20T08:48:31;4.23;;;4.03;;
920;SDS011;447;51.332;6.778;2023-07-20T08:50:57;4.37;;;4.07;;
920;SDS011;447;51.332;6.778;2023-07-20T08:53:27;5.03;;;4.73;;
920;SDS011;447;51.332;6.778;2023-07-20T08:55:55;5.27;;;4.87;;
920;SDS011;447;51.332;6.778;2023-07-20T08:58:21;5.00;;;4.63;;
920;SDS011;447;51.332;6.778;2023-07-20T09:00:51;5.50;;;5.10;;
920;SDS011;447;51.332;6.778;2023-07-20T09:03:21;4.70;;;4.40;;
920;SDS011;447;51.332;6.778;2023-07-20T09:05:49;5.60;;;5.17;;
920;SDS011;447;51.332;6.778;2023-07-20T09:08:16;5.43;;;4.93;;
920;SDS011;447;51.332;6.778;2023-07-20T09:10:44;4.93;;;4.53;;
920;SDS011;447;51.332;6.778;2023-07-20T09:13:13;4.77;;;4.40;;
920;SDS011;447;51.332;6.778;2023-07-20T09:15:45;4.77;;;4.47;;
920;SDS011;447;51.332;6.778;2023-07-20T09:18:12;4.43;;;4.13;;
920;SDS011;447;51.332;6.778;2023-07-20T09:20:49;5.40;;;4.90;;
920;SDS011;447;51.332;6.778;2023-07-20T09:23:17;4.70;;;4.40;;
920;SDS011;447;51.332;6.778;2023-07-20T09:25:43;4.53;;;4.23;;
920;SDS011;447;51.332;6.778;2023-07-20T09:28:16;4.37;;;4.07;;
920;SDS011;447;51.332;6.778;2023-07-20T09:30:44;4.30;;;4.00;;
920;SDS011;447;51.332;6.778;2023-07-20T09:33:18;4.27;;;3.97;;
920;SDS011;447;51.332;6.778;2023-07-20T09:35:46;4.60;;;4.30;;
920;SDS011;447;51.332;6.778;2023-07-20T09:38:12;4.23;;;4.00;;
920;SDS011;447;51.332;6.778;2023-07-20T09:40:50;4.30;;;4.00;;
920;SDS011;447;51.332;6.778;2023-07-20T09:43:16;4.30;;;4.00;;
920;SDS011;447;51.332;6.778;2023-07-20T09:45:43;4.13;;;3.80;;
920;SDS011;447;51.332;6.778;2023-07-20T09:48:10;4.10;;;3.80;;
920;SDS011;447;51.332;6.778;2023-07-20T09:50:40;4.10;;;3.90;;
920;SDS011;447;51.332;6.778;2023-07-20T09:53:14;4.17;;;3.87;;
920;SDS011;447;51.332;6.778;2023-07-20T09:55:44;4.30;;;4.00;;
920;SDS011;447;51.332;6.778;2023-07-20T09:58:11;3.93;;;3.63;;
920;SDS011;447;51.332;6.778;2023-07-20T10:00:40;3.80;;;3.60;;
920;SDS011;447;51.332;6.778;2023-07-20T10:03:21;4.17;;;3.97;;
920;SDS011;447;51.332;6.778;2023-07-20T10:05:54;4.70;;;4.30;;
920;SDS011;447;51.332;6.778;2023-07-20T10:08:25;4.20;;;3.90;;
920;SDS011;447;51.332;6.778;2023-07-20T10:10:57;4.20;;;3.90;;
920;SDS011;447;51.332;6.778;2023-07-20T10:13:27;4.80;;;4.50;;
920;SDS011;447;51.332;6.778;2023-07-20T10:15:54;5.77;;;4.77;;
920;SDS011;447;51.332;6.778;2023-07-20T10:18:36;4.60;;;4.30;;
920;SDS011;447;51.332;6.778;2023-07-20T10:21:11;4.50;;;4.20;;
920;SDS011;447;51.332;6.778;2023-07-20T10:23:42;4.67;;;4.37;;
920;SDS011;447;51.332;6.778;2023-07-20T10:26:11;4.13;;;3.73;;
920;SDS011;447;51.332;6.778;2023-07-20T10:28:43;3.70;;;3.40;;
920;SDS011;447;51.332;6.778;2023-07-20T10:31:13;3.93;;;3.63;;
920;SDS011;447;51.332;6.778;2023-07-20T10:33:41;4.80;;;4.40;;
920;SDS011;447;51.332;6.778;2023-07-20T10:36:07;4.23;;;3.93;;
920;SDS011;447;51.332;6.778;2023-07-20T10:38:51;4.83;;;4.43;;
920;SDS011;447;51.332;6.778;2023-07-20T10:44:01;5.80;;;4.27;;
920;SDS011;447;51.332;6.778;2023-07-20T10:49:06;4.30;;;4.00;;
920;SDS011;447;51.332;6.778;2023-07-20T10:51:45;4.33;;;3.93;;
920;SDS011;447;51.332;6.778;2023-07-20T10:56:51;3.87;;;3.57;;
920;SDS011;447;51.332;6.778;2023-07-20T10:59:18;3.97;;;3.77;;
920;SDS011;447;51.332;6.778;2023-07-20T11:01:56;3.67;;;3.47;;
920;SDS011;447;51.332;6.778;2023-07-20T11:07:04;4.37;;;4.07;;
920;SDS011;447;51.332;6.778;2023-07-20T11:09:34;3.60;;;3.40;;
920;SDS011;447;51.332;6.778;2023-07-20T11:12:13;3.67;;;3.37;;
920;SDS011;447;51.332;6.778;2023-07-20T11:15:04;5.57;;;3.47;;
920;SDS011;447;51.332;6.778;2023-07-20T11:17:32;3.90;;;3.60;;
920;SDS011;447;51.332;6.778;2023-07-20T11:19:59;3.83;;;3.63;;
920;SDS011;447;51.332;6.778;2023-07-20T11:22:26;3.20;;;3.00;;
920;SDS011;447;51.332;6.778;2023-07-20T11:24:59;4.00;;;3.80;;
920;SDS011;447;51.332;6.778;2023-07-20T11:27:26;3.90;;;3.57;;
920;SDS011;447;51.332;6.778;2023-07-20T11:29:56;3.70;;;3.40;;
920;SDS011;447;51.332;6.778;2023-07-20T11:32:23;3.30;;;3.03;;
920;SDS011;447;51.332;6.778;2023-07-20T11:34:52;3.53;;;3.33;;
920;SDS011;447;51.332;6.778;2023-07-20T11:37:19;3.77;;;2.90;;
920;SDS011;447;51.332;6.778;2023-07-20T11:39:45;3.30;;;3.10;;
920;SDS011;447;51.332;6.778;2023-07-20T11:42:13;3.73;;;3.40;;
920;SDS011;447;51.332;6.778;2023-07-20T11:44:43;3.30;;;3.10;;
920;SDS011;447;51.332;6.778;2023-07-20T11:47:11;3.07;;;2.87;;
920;SDS011;447;51.332;6.778;2023-07-20T11:49:44;4.10;;;3.70;;
920;SDS011;447;51.332;6.778;2023-07-20T11:52:15;3.30;;;3.10;;
920;SDS011;447;51.332;6.778;2023-07-20T11:54:42;3.63;;;3.43;;
920;SDS011;447;51.332;6.778;2023-07-20T11:57:19;3.40;;;3.20;;
920;SDS011;447;51.332;6.778;2023-07-20T11:59:54;3.47;;;3.27;;
920;SDS011;447;51.332;6.778;2023-07-20T12:02:26;3.50;;;3.30;;
920;SDS011;447;51.332;6.778;2023-07-20T12:04:56;3.50;;;3.30;;
920;SDS011;447;51.332;6.778;2023-07-20T12:07:28;2.73;;;2.63;;
920;SDS011;447;51.332;6.778;2023-07-20T12:10:09;3.13;;;2.93;;
920;SDS011;447;51.332;6.778;2023-07-20T12:12:40;3.13;;;2.93;;
920;SDS011;447;51.332;6.778;2023-07-20T12:17:45;2.97;;;2.77;;
920;SDS011;447;51.332;6.778;2023-07-20T12:20:24;3.10;;;2.90;;
920;SDS011;447;51.332;6.778;2023-07-20T12:23:01;3.30;;;3.10;;
920;SDS011;447;51.332;6.778;2023-07-20T12:25:45;2.80;;;2.70;;
920;SDS011;447;51.332;6.778;2023-07-20T12:28:13;3.20;;;2.83;;
920;SDS011;447;51.332;6.778;2023-07-20T12:30:41;3.07;;;2.97;;
920;SDS011;447;51.332;6.778;2023-07-20T12:33:12;2.83;;;2.63;;
920;SDS011;447;51.332;6.778;2023-07-20T12:35:43;3.10;;;2.90;;
920;SDS011;447;51.332;6.778;2023-07-20T12:38:12;2.90;;;2.70;;
920;SDS011;447;51.332;6.778;2023-07-20T12:40:41;3.00;;;2.90;;
920;SDS011;447;51.332;6.778;2023-07-20T12:43:12;3.30;;;3.10;;
920;SDS011;447;51.332;6.778;2023-07-20T12:45:42;3.13;;;2.80;;
920;SDS011;447;51.332;6.778;2023-07-20T12:48:08;3.10;;;2.90;;
920;SDS011;447;51.332;6.778;2023-07-20T12:50:34;3.13;;;2.93;;
920;SDS011;447;51.332;6.778;2023-07-20T12:53:01;3.47;;;2.90;;
920;SDS011;447;51.332;6.778;2023-07-20T12:55:29;3.20;;;3.00;;
920;SDS011;447;51.332;6.778;2023-07-20T12:57:59;3.87;;;3.50;;
920;SDS011;447;51.332;6.778;2023-07-20T13:00:25;3.13;;;2.93;;
920;SDS011;447;51.332;6.778;2023-07-20T13:02:52;3.03;;;2.83;;
920;SDS011;447;51.332;6.778;2023-07-20T13:05:18;2.70;;;2.50;;
920;SDS011;447;51.332;6.778;2023-07-20T13:07:44;2.70;;;2.60;;
920;SDS011;447;51.332;6.778;2023-07-20T13:10:11;2.77;;;2.67;;
920;SDS011;447;51.332;6.778;2023-07-20T13:12:37;2.80;;;2.60;;
920;SDS011;447;51.332;6.778;2023-07-20T13:15:06;2.60;;;2.50;;
920;SDS011;447;51.332;6.778;2023-07-20T13:17:37;4.63;;;2.50;;
920;SDS011;447;51.332;6.778;2023-07-20T13:20:04;2.90;;;2.70;;
920;SDS011;447;51.332;6.778;2023-07-20T13:22:35;2.70;;;2.50;;
920;SDS011;447;51.332;6.778;2023-07-20T13:25:07;2.90;;;2.70;;
920;SDS011;447;51.332;6.778;2023-07-20T13:27:38;2.60;;;2.50;;
920;SDS011;447;51.332;6.778;2023-07-20T13:30:07;3.23;;;3.00;;
920;SDS011;447;51.332;6.778;2023-07-20T13:32:42;3.10;;;2.90;;
920;SDS011;447;51.332;6.778;2023-07-20T13:35:11;3.40;;;3.10;;
920;SDS011;447;51.332;6.778;2023-07-20T13:37:40;2.67;;;2.57;;
920;SDS011;447;51.332;6.778;2023-07-20T13:40:11;4.10;;;2.80;;
920;SDS011;447;51.332;6.778;2023-07-20T13:42:39;3.10;;;2.80;;
920;SDS011;447;51.332;6.778;2023-07-20T13:45:08;3.03;;;2.83;;
920;SDS011;447;51.332;6.778;2023-07-20T13:47:37;2.40;;;2.30;;
920;SDS011;447;51.332;6.778;2023-07-20T13:50:03;3.10;;;2.90;;
920;SDS011;447;51.332;6.778;2023-07-20T13:52:29;2.70;;;2.60;;
920;SDS011;447;51.332;6.778;2023-07-20T13:55:00;2.97;;;2.87;;
920;SDS011;447;51.332;6.778;2023-07-20T13:57:31;2.90;;;2.70;;
920;SDS011;447;51.332;6.778;2023-07-20T13:59:57;3.03;;;2.73;;
920;SDS011;447;51.332;6.778;2023-07-20T14:02:28;3.20;;;3.00;;
920;SDS011;447;51.332;6.778;2023-07-20T14:04:54;2.77;;;2.57;;
920;SDS011;447;51.332;6.778;2023-07-20T14:07:21;2.77;;;2.57;;
920;SDS011;447;51.332;6.778;2023-07-20T14:09:47;3.30;;;2.47;;
920;SDS011;447;51.332;6.778;2023-07-20T14:12:13;2.87;;;2.63;;
920;SDS011;447;51.332;6.778;2023-07-20T14:14:40;3.00;;;2.80;;
920;SDS011;447;51.332;6.778;2023-07-20T14:17:06;2.70;;;2.50;;
920;SDS011;447;51.332;6.778;2023-07-20T14:19:33;3.20;;;2.90;;
920;SDS011;447;51.332;6.778;2023-07-20T14:22:01;3.00;;;2.80;;
920;SDS011;447;51.332;6.778;2023-07-20T14:24:29;2.67;;;2.57;;
920;SDS011;447;51.332;6.778;2023-07-20T14:26:58;3.00;;;2.80;;
920;SDS011;447;51.332;6.778;2023-07-20T14:29:26;2.60;;;2.50;;
920;SDS011;447;51.332;6.778;2023-07-20T14:31:58;3.40;;;2.70;;
920;SDS011;447;51.332;6.778;2023-07-20T14:34:24;2.60;;;2.50;;
920;SDS011;447;51.332;6.778;2023-07-20T14:36:52;3.10;;;2.80;;
920;SDS011;447;51.332;6.778;2023-07-20T14:39:23;2.47;;;2.37;;
920;SDS011;447;51.332;6.778;2023-07-20T14:41:51;2.97;;;2.60;;
920;SDS011;447;51.332;6.778;2023-07-20T14:44:19;2.83;;;2.63;;
920;SDS011;447;51.332;6.778;2023-07-20T14:46:48;2.80;;;2.60;;
920;SDS011;447;51.332;6.778;2023-07-20T14:49:14;2.60;;;2.50;;
920;SDS011;447;51.332;6.778;2023-07-20T14:51:40;2.40;;;2.30;;
920;SDS011;447;51.332;6.778;2023-07-20T14:54:12;2.90;;;2.70;;
920;SDS011;447;51.332;6.778;2023-07-20T14:56:47;2.80;;;2.70;;
920;SDS011;447;51.332;6.778;2023-07-20T14:59:16;3.17;;;2.97;;
920;SDS011;447;51.332;6.778;2023-07-20T15:01:43;2.80;;;2.70;;
920;SDS011;447;51.332;6.778;2023-07-20T15:04:15;2.60;;;2.50;;
920;SDS011;447;51.332;6.778;2023-07-20T15:06:44;2.70;;;2.60;;
920;SDS011;447;51.332;6.778;2023-07-20T15:09:10;3.10;;;2.90;;
920;SDS011;447;51.332;6.778;2023-07-20T15:11:36;2.87;;;2.67;;
920;SDS011;447;51.332;6.778;2023-07-20T15:14:02;2.60;;;2.50;;
920;SDS011;447;51.332;6.778;2023-07-20T15:16:30;3.13;;;2.97;;
920;SDS011;447;51.332;6.778;2023-07-20T15:18:59;2.57;;;2.47;;
920;SDS011;447;51.332;6.778;2023-07-20T15:21:27;2.93;;;2.80;;
920;SDS011;447;51.332;6.778;2023-07-20T15:23:58;2.80;;;2.70;;
920;SDS011;447;51.332;6.778;2023-07-20T15:26:24;2.93;;;2.80;;
920;SDS011;447;51.332;6.778;2023-07-20T15:28:55;3.00;;;2.90;;
920;SDS011;447;51.332;6.778;2023-07-20T15:31:23;3.40;;;3.20;;
920;SDS011;447;51.332;6.778;2023-07-20T15:33:49;3.10;;;2.90;;
920;SDS011;447;51.332;6.778;2023-07-20T15:36:17;3.10;;;2.90;;
920;SDS011;447;51.332;6.778;2023-07-20T15:38:43;2.87;;;2.77;;
920;SDS011;447;51.332;6.778;2023-07-20T15:41:10;3.33;;;3.13;;
920;SDS011;447;51.332;6.778;2023-07-20T15:43:40;2.80;;;2.63;;
920;SDS011;447;51.332;6.778;2023-07-20T15:48:44;2.83;;;2.63;;
920;SDS011;447;51.332;6.778;2023-07-20T15:51:11;2.60;;;2.50;;
920;SDS011;447;51.332;6.778;2023-07-20T15:53:37;2.63;;;2.53;;
920;SDS011;447;51.332;6.778;2023-07-20T15:56:05;2.93;;;2.70;;
920;SDS011;447;51.332;6.778;2023-07-20T15:58:32;3.17;;;2.97;;
920;SDS011;447;51.332;6.778;2023-07-20T16:01:00;2.83;;;2.63;;
920;SDS011;447;51.332;6.778;2023-07-20T16:03:28;2.97;;;2.60;;
920;SDS011;447;51.332;6.778;2023-07-20T16:05:59;2.67;;;2.57;;
920;SDS011;447;51.332;6.778;2023-07-20T16:08:27;2.93;;;2.73;;
920;SDS011;447;51.332;6.778;2023-07-20T16:10:53;2.97;;;2.73;;
920;SDS011;447;51.332;6.778;2023-07-20T16:13:23;2.70;;;2.50;;
920;SDS011;447;51.332;6.778;2023-07-20T16:15:55;2.90;;;2.70;;
920;SDS011;447;51.332;6.778;2023-07-20T16:18:21;3.10;;;2.83;;
920;SDS011;447;51.332;6.778;2023-07-20T16:20:50;2.90;;;2.70;;
920;SDS011;447;51.332;6.778;2023-07-20T16:23:21;3.40;;;2.90;;
920;SDS011;447;51.332;6.778;2023-07-20T16:25:49;3.00;;;2.80;;